Atqasuk Edward Burnell Sr Memorial Airport Atqasuk US
ICAO: PATQ
IATA:
Category: Medium
Scheduled Services:

Elevation: 96 ft
TransAlt. 18000 ft.

Airport Communications:
ASOS:119.925
ANCHORAGE CNTR:135.3
CTAF:122.9
BARROW RDO:122.2

PATQ Zoom In..

If you have problems with the map follow the link
https://www.worldairports.se/pages/airport.php?
ICAO=PATQ

Runways:

(A) RW 06 length 4370 ft width 90 ft
---- / hdg 61

(B) RW 24 length 4370 ft width 90 ft
---- / hdg 241

Location; PATQ
Day. 13 / Time. 20.41 Zulu
* Altimeter: 29.47
* Temperature: -19° c. 2.2°f.
* Wind from: 120° Speed 04 kn.
Dewpoint: -22° c.
Visibility: 1 Statute Miles.
Clouds: Overcast 200 ft.
Conditions: Mist.

PATQ 132041Z AUTO 12004KT 1SM BR OVC002 M19/M22 A2947 RMK AO2 FZRANO TSNO


Wind From 120°
Speed 04 kn.

 
 
jpsmedia worldairports.se 2019   terms of use